Time;durP1;ratioP1;P1;durP2;ratioP2;P2;SDS_P1;SDS_P2;PMS_P1;PMS_P2;Temp;Humidity;BMP_temperature;BMP_pressure;BME280_temperature;BME280_humidity;BME280_pressure;Samples;Min_cycle;Max_cycle;Signal;HPM_P1;HPM_P2
2021/08/19 07:49:53;;;;;;;10.68;5.63;;;19.10;99.90;;;;;;12167380;27;20414;-59
2021/08/19 07:55:40;;;;;;;9.95;5.10;;;19.50;99.90;;;;;;12160401;27;20378;-60
2021/08/19 08:01:27;;;;;;;10.60;5.80;;;20.10;99.90;;;;;;12161831;27;20040;-61
2021/08/19 08:07:16;;;;;;;8.75;5.47;;;20.60;99.90;;;;;;12166889;27;20047;-61
2021/08/19 08:13:02;;;;;;;10.38;5.32;;;20.90;99.90;;;;;;12162633;27;20055;-60
2021/08/19 08:18:49;;;;;;;11.70;5.18;;;21.20;99.90;;;;;;12160623;27;20051;-61
2021/08/19 08:24:39;;;;;;;8.38;5.20;;;21.50;99.90;;;;;;12161136;28;20451;-61
2021/08/19 08:30:27;;;;;;;7.88;5.00;;;21.60;99.90;;;;;;12162103;27;20078;-61
2021/08/19 08:36:14;;;;;;;8.10;4.55;;;21.60;99.90;;;;;;12160278;27;20047;-63
2021/08/19 08:42:06;;;;;;;9.32;5.43;;;21.60;99.90;;;;;;12163838;27;21329;-61
2021/08/19 08:47:53;;;;;;;7.63;4.88;;;21.50;99.90;;;;;;12159812;27;20523;-61
2021/08/19 08:53:42;;;;;;;10.00;4.55;;;21.20;99.90;;;;;;12162233;27;20048;-61
2021/08/19 08:59:30;;;;;;;6.68;4.40;;;21.10;99.90;;;;;;12141080;28;20055;-59
2021/08/19 09:05:20;;;;;;;7.32;4.22;;;21.20;99.90;;;;;;12128854;27;20206;-63
2021/08/19 09:11:07;;;;;;;14.23;4.25;;;21.20;99.90;;;;;;12129451;28;20047;-60
2021/08/19 09:16:56;;;;;;;4.80;4.00;;;21.30;99.90;;;;;;12128147;28;20063;-61
2021/08/19 09:22:54;;;;;;;8.55;4.45;;;21.10;99.90;;;;;;12126358;28;20063;-61
2021/08/19 09:28:41;;;;;;;8.55;3.67;;;21.20;99.90;;;;;;12130138;28;21733;-61
2021/08/19 09:34:29;;;;;;;9.63;3.55;;;21.00;99.90;;;;;;12127505;28;22066;-61
2021/08/19 09:40:16;;;;;;;9.63;3.60;;;20.90;99.90;;;;;;12131556;28;20040;-61
2021/08/19 09:46:03;;;;;;;9.05;3.42;;;20.80;99.90;;;;;;12126848;28;20177;-61
2021/08/19 09:52:03;;;;;;;6.35;3.28;;;21.10;99.90;;;;;;12123587;28;20047;-62
2021/08/19 09:57:50;;;;;;;8.40;3.60;;;21.30;99.70;;;;;;12127580;28;20066;-60
2021/08/19 10:03:38;;;;;;;6.70;3.28;;;21.40;99.30;;;;;;12123325;28;20051;-62
2021/08/19 10:09:26;;;;;;;5.30;3.47;;;21.30;99.60;;;;;;12123937;28;20055;-64
2021/08/19 10:15:14;;;;;;;5.25;3.10;;;21.10;99.70;;;;;;12128342;28;20100;-62
2021/08/19 10:21:12;;;;;;;5.13;2.72;;;21.10;99.70;;;;;;12126999;28;20043;-61
2021/08/19 10:27:18;;;;;;;4.70;2.80;;;21.30;99.10;;;;;;12123944;27;20430;-62
2021/08/19 10:33:05;;;;;;;3.47;2.67;;;21.30;99.10;;;;;;12124302;28;20048;-62
2021/08/19 10:38:52;;;;;;;6.05;2.70;;;21.50;99.10;;;;;;12123932;28;20058;-61
2021/08/19 10:44:45;;;;;;;6.03;3.40;;;21.50;98.40;;;;;;12123572;28;20067;-62
2021/08/19 10:50:34;;;;;;;4.10;2.83;;;21.40;98.00;;;;;;12114658;28;20055;-62
2021/08/19 10:56:43;;;;;;;5.07;3.75;;;21.30;97.90;;;;;;12124224;28;20064;-62
2021/08/19 11:02:41;;;;;;;6.40;4.05;;;21.40;97.60;;;;;;12125625;27;20047;-62
2021/08/19 11:08:42;;;;;;;4.25;3.50;;;21.40;98.00;;;;;;12122932;28;20521;-62
2021/08/19 11:14:29;;;;;;;4.40;2.88;;;21.70;97.80;;;;;;12126536;28;20050;-62
2021/08/19 11:20:25;;;;;;;3.10;2.72;;;21.80;96.80;;;;;;12122491;28;20047;-62
2021/08/19 11:26:17;;;;;;;3.70;2.72;;;22.00;95.80;;;;;;12124858;28;20434;-62
2021/08/19 11:32:10;;;;;;;4.70;2.22;;;21.90;96.30;;;;;;12136236;28;20513;-62
2021/08/19 11:38:14;;;;;;;4.17;2.57;;;21.80;96.30;;;;;;12161888;28;20055;-62
2021/08/19 11:44:02;;;;;;;5.72;2.53;;;21.90;95.90;;;;;;12161997;28;20052;-62
2021/08/19 11:49:54;;;;;;;3.10;2.33;;;22.00;96.40;;;;;;12114670;22;20191;-75
2021/08/19 11:55:43;;;;;;;3.17;2.70;;;22.10;95.80;;;;;;12083421;28;20063;-80
2021/08/19 12:01:31;;;;;;;5.95;3.00;;;21.80;95.40;;;;;;12083320;28;20100;-77
2021/08/19 12:07:18;;;;;;;4.30;2.88;;;21.60;96.10;;;;;;12078954;28;20056;-77
2021/08/19 12:13:06;;;;;;;4.50;2.88;;;22.00;96.10;;;;;;12081080;28;20048;-76
2021/08/19 12:19:07;;;;;;;4.68;2.67;;;22.20;95.90;;;;;;12079887;28;20532;-76
2021/08/19 12:24:54;;;;;;;5.55;2.10;;;22.50;94.90;;;;;;12079568;28;20066;-75
2021/08/19 12:31:00;;;;;;;7.78;1.80;;;22.70;94.40;;;;;;12077302;28;20049;-75
2021/08/19 12:36:48;;;;;;;4.20;2.15;;;22.70;94.20;;;;;;12080621;28;20040;-76
2021/08/19 12:42:36;;;;;;;4.80;2.58;;;22.60;94.10;;;;;;12082293;28;20053;-75
2021/08/19 12:48:29;;;;;;;5.22;2.33;;;22.30;94.40;;;;;;12088245;28;20056;-78
2021/08/19 12:54:21;;;;;;;4.53;2.87;;;22.20;95.10;;;;;;12085045;28;20473;-79
2021/08/19 13:00:12;;;;;;;3.67;2.63;;;22.30;94.70;;;;;;12084806;28;20494;-78
2021/08/19 13:06:00;;;;;;;4.05;2.58;;;22.40;95.10;;;;;;12085804;28;20055;-79
2021/08/19 13:11:47;;;;;;;4.57;2.55;;;22.60;94.20;;;;;;12085180;28;20422;-79
2021/08/19 13:17:34;;;;;;;4.20;2.45;;;22.80;93.90;;;;;;12084899;28;20395;-79
2021/08/19 13:23:23;;;;;;;3.10;2.53;;;22.60;93.70;;;;;;12092306;28;20052;-79
2021/08/19 13:29:10;;;;;;;3.33;2.60;;;22.50;94.00;;;;;;12083672;28;20055;-78
2021/08/19 13:34:57;;;;;;;6.60;2.72;;;22.60;94.10;;;;;;12087385;28;20056;-79
2021/08/19 13:40:45;;;;;;;4.60;2.88;;;22.60;93.90;;;;;;12084337;28;20045;-78
2021/08/19 13:46:32;;;;;;;4.03;2.72;;;22.70;93.40;;;;;;12098933;28;20055;-79
2021/08/19 13:52:19;;;;;;;4.88;2.70;;;22.60;93.40;;;;;;12092744;28;20052;-79
2021/08/19 13:58:07;;;;;;;3.67;2.85;;;22.50;93.70;;;;;;12082019;28;20762;-78
2021/08/19 14:03:54;;;;;;;2.78;2.38;;;22.40;93.60;;;;;;12081470;28;20439;-80
2021/08/19 14:09:41;;;;;;;3.00;2.50;;;22.40;94.00;;;;;;12082023;28;20054;-75
2021/08/19 14:15:29;;;;;;;2.67;2.28;;;22.30;94.10;;;;;;12076207;28;20060;-79
2021/08/19 14:21:16;;;;;;;3.25;1.92;;;22.50;93.60;;;;;;12079734;28;20052;-79
2021/08/19 14:27:05;;;;;;;3.38;2.35;;;22.50;93.60;;;;;;12082885;28;20059;-78
2021/08/19 14:32:53;;;;;;;2.83;2.10;;;22.40;93.10;;;;;;12076093;28;20043;-78
2021/08/19 14:38:40;;;;;;;4.32;2.45;;;22.50;93.30;;;;;;12081691;28;20108;-78
2021/08/19 14:44:27;;;;;;;4.13;2.30;;;22.40;93.30;;;;;;12084766;28;20485;-78
2021/08/19 14:50:16;;;;;;;4.85;2.70;;;22.20;93.50;;;;;;12078452;28;20511;-77
2021/08/19 14:56:02;;;;;;;2.65;2.25;;;22.20;93.50;;;;;;12082397;28;20040;-78
2021/08/19 15:01:49;;;;;;;3.63;2.38;;;22.30;93.50;;;;;;12079234;28;20059;-75
2021/08/19 15:07:37;;;;;;;2.13;1.95;;;22.20;93.50;;;;;;12077609;28;20744;-75
2021/08/19 15:13:24;;;;;;;2.55;1.98;;;22.00;93.50;;;;;;12080250;28;20054;-75
2021/08/19 15:19:15;;;;;;;3.60;2.30;;;22.10;93.60;;;;;;12076385;28;20052;-80
2021/08/19 15:25:05;;;;;;;3.40;2.28;;;22.10;93.20;;;;;;12083715;28;20487;-79
2021/08/19 15:30:52;;;;;;;3.13;1.90;;;22.20;93.00;;;;;;12083499;28;20048;-80
2021/08/19 15:36:43;;;;;;;3.92;2.20;;;22.20;93.20;;;;;;12086630;28;20069;-79
2021/08/19 15:42:32;;;;;;;2.60;2.00;;;22.20;93.20;;;;;;12085865;28;20193;-80
2021/08/19 15:48:19;;;;;;;2.53;2.08;;;22.20;92.90;;;;;;12075016;28;20109;-79
2021/08/19 15:54:06;;;;;;;3.05;2.08;;;22.10;93.10;;;;;;12083052;28;20536;-80
2021/08/19 15:59:55;;;;;;;2.22;1.90;;;22.20;93.10;;;;;;12086333;28;20043;-79
2021/08/19 16:05:41;;;;;;;2.50;1.90;;;22.20;93.30;;;;;;12083859;28;20071;-78
2021/08/19 16:11:28;;;;;;;2.28;1.50;;;22.40;92.70;;;;;;12091878;28;20407;-76
2021/08/19 16:17:16;;;;;;;4.00;2.38;;;23.30;92.70;;;;;;12089198;28;20047;-77
2021/08/19 16:23:04;;;;;;;3.78;1.63;;;25.90;84.80;;;;;;12092930;28;20186;-79
2021/08/19 16:28:51;;;;;;;2.58;1.40;;;28.40;77.60;;;;;;12088122;28;20059;-80
2021/08/19 16:34:42;;;;;;;3.47;1.55;;;30.90;67.90;;;;;;12089158;28;20056;-80
2021/08/19 16:40:29;;;;;;;2.42;1.70;;;33.00;59.90;;;;;;12089450;28;20036;-79
2021/08/19 16:46:17;;;;;;;2.45;1.60;;;32.60;58.60;;;;;;12088125;28;20060;-79
2021/08/19 16:52:06;;;;;;;1.92;1.50;;;33.90;55.70;;;;;;12090319;28;20041;-79
2021/08/19 16:57:53;;;;;;;3.55;1.77;;;35.10;52.50;;;;;;12095019;28;20414;-81
2021/08/19 17:03:40;;;;;;;2.65;1.30;;;35.50;50.50;;;;;;12085689;28;20047;-79
2021/08/19 17:09:28;;;;;;;2.00;1.67;;;35.80;49.20;;;;;;12086942;28;20048;-78
2021/08/19 17:15:17;;;;;;;2.55;1.30;;;35.70;48.70;;;;;;12089169;28;20048;-76
2021/08/19 17:21:05;;;;;;;4.22;1.40;;;35.90;48.70;;;;;;12087128;28;20452;-77
2021/08/19 17:26:53;;;;;;;2.80;1.70;;;35.60;48.40;;;;;;12090509;28;20052;-76
2021/08/19 17:32:41;;;;;;;3.40;1.55;;;35.40;49.00;;;;;;12084010;28;20079;-77
2021/08/19 17:38:27;;;;;;;1.45;1.30;;;35.30;49.30;;;;;;12088594;28;20075;-77
2021/08/19 17:44:22;;;;;;;2.92;1.80;;;34.90;49.70;;;;;;12090726;28;20055;-77
2021/08/19 17:50:10;;;;;;;2.03;1.50;;;34.10;49.80;;;;;;12086584;28;20049;-77
2021/08/19 17:56:04;;;;;;;5.72;1.70;;;33.10;52.20;;;;;;12074983;28;20403;-78
2021/08/19 18:01:52;;;;;;;3.47;2.13;;;31.90;55.00;;;;;;12084563;28;20048;-78
2021/08/19 18:07:40;;;;;;;2.67;1.80;;;29.60;60.30;;;;;;12080192;28;20066;-79
2021/08/19 18:13:30;;;;;;;1.90;1.55;;;27.70;66.00;;;;;;12079415;28;20082;-77
2021/08/19 18:19:21;;;;;;;2.67;1.75;;;26.40;70.50;;;;;;12084419;28;20498;-78
2021/08/19 18:25:10;;;;;;;2.20;2.00;;;25.40;74.30;;;;;;12074496;28;20426;-78
2021/08/19 18:30:57;;;;;;;3.00;1.90;;;24.50;77.40;;;;;;12071770;28;20510;-78
2021/08/19 18:36:47;;;;;;;2.42;2.15;;;24.00;79.80;;;;;;12072782;28;20052;-77
2021/08/19 18:42:37;;;;;;;3.33;2.08;;;23.60;81.70;;;;;;12078176;28;20054;-84
2021/08/19 18:48:24;;;;;;;3.00;2.10;;;23.10;83.40;;;;;;12075013;28;20541;-79
2021/08/19 18:54:12;;;;;;;3.70;2.42;;;22.70;84.60;;;;;;12076934;28;20079;-79
2021/08/19 18:59:59;;;;;;;5.95;2.20;;;22.40;86.50;;;;;;12079722;28;20048;-77
2021/08/19 19:05:46;;;;;;;3.40;2.05;;;22.20;87.30;;;;;;12080202;28;20063;-77
2021/08/19 19:11:34;;;;;;;4.50;2.33;;;22.10;88.30;;;;;;12081758;28;20048;-78
2021/08/19 19:17:32;;;;;;;4.03;2.28;;;22.00;89.00;;;;;;12107361;28;20056;-77
2021/08/19 19:23:19;;;;;;;2.42;2.22;;;22.00;89.30;;;;;;12097244;28;20052;-77
2021/08/19 19:29:07;;;;;;;2.63;1.90;;;21.90;89.30;;;;;;12076546;28;20056;-78
2021/08/19 19:34:54;;;;;;;4.45;2.30;;;21.80;89.80;;;;;;12071523;28;20063;-77
2021/08/19 19:40:41;;;;;;;3.05;2.00;;;21.80;90.00;;;;;;12080624;28;20049;-77
2021/08/19 19:46:35;;;;;;;5.35;2.10;;;21.70;90.20;;;;;;12075578;28;20056;-77
2021/08/19 19:52:21;;;;;;;6.93;2.33;;;21.60;90.40;;;;;;12076916;28;20052;-79
2021/08/19 19:58:08;;;;;;;3.47;2.20;;;21.60;90.60;;;;;;12075897;28;20045;-78
2021/08/19 20:03:57;;;;;;;3.13;2.50;;;21.60;90.80;;;;;;12074306;28;20051;-78
2021/08/19 20:09:43;;;;;;;2.47;2.00;;;21.70;90.90;;;;;;12079381;28;20059;-79
2021/08/19 20:15:31;;;;;;;4.63;2.05;;;21.60;91.10;;;;;;12073699;28;20063;-78
2021/08/19 20:21:19;;;;;;;4.57;2.63;;;21.70;91.30;;;;;;12072049;28;20736;-79
2021/08/19 20:27:06;;;;;;;4.63;2.80;;;21.70;91.50;;;;;;12080831;28;20056;-79
2021/08/19 20:32:53;;;;;;;3.10;2.20;;;21.80;91.60;;;;;;12074603;28;20434;-78
2021/08/19 20:38:41;;;;;;;5.18;3.03;;;21.80;91.80;;;;;;12081508;28;20048;-79
2021/08/19 20:44:28;;;;;;;5.72;3.00;;;21.80;91.90;;;;;;12079949;28;20059;-79
2021/08/19 20:50:15;;;;;;;4.25;2.63;;;21.90;91.90;;;;;;12078641;28;20519;-78
2021/08/19 20:56:04;;;;;;;5.28;3.22;;;21.80;92.10;;;;;;12083552;28;20506;-78
2021/08/19 21:01:50;;;;;;;8.05;3.47;;;21.80;92.40;;;;;;12087510;28;20037;-79
2021/08/19 21:07:37;;;;;;;4.03;2.55;;;21.70;92.60;;;;;;12086775;28;20044;-79
2021/08/19 21:13:26;;;;;;;4.70;2.65;;;21.70;92.80;;;;;;12086907;28;20056;-78
2021/08/19 21:19:13;;;;;;;6.10;2.92;;;21.70;92.90;;;;;;12086027;28;20048;-79
2021/08/19 21:25:00;;;;;;;4.75;3.05;;;21.70;93.30;;;;;;12083987;28;20048;-79
2021/08/19 21:30:48;;;;;;;3.10;2.40;;;21.70;93.90;;;;;;12085349;28;20045;-79
2021/08/19 21:36:36;;;;;;;4.88;2.65;;;21.60;93.50;;;;;;12084255;28;20063;-79
2021/08/19 21:42:23;;;;;;;7.72;2.25;;;21.40;93.50;;;;;;12079338;28;20767;-78
2021/08/19 21:48:11;;;;;;;2.88;2.13;;;21.30;93.60;;;;;;12084644;28;20414;-78
2021/08/19 21:54:01;;;;;;;2.60;2.20;;;21.20;93.70;;;;;;12082642;28;20063;-77
2021/08/19 21:59:50;;;;;;;3.17;2.45;;;21.00;93.80;;;;;;12082090;28;20052;-78
2021/08/19 22:05:39;;;;;;;4.32;2.13;;;21.00;93.90;;;;;;12086230;28;20060;-79
2021/08/19 22:11:26;;;;;;;2.97;2.17;;;21.00;93.80;;;;;;12084712;28;20052;-79
2021/08/19 22:17:14;;;;;;;3.17;1.92;;;20.80;93.60;;;;;;12078004;28;20055;-79
